Time;durP1;ratioP1;P1;durP2;ratioP2;P2;SDS_P1;SDS_P2;PMS_P1;PMS_P2;Temp;Humidity;BMP_temperature;BMP_pressure;BME280_temperature;BME280_humidity;BME280_pressure;Samples;Min_cycle;Max_cycle;Signal;HPM_P1;HPM_P2
2021/10/02 00:33:36;;;;;;;0.40;0.20;;;14.90;1.00;;;;;;4937774;29;20259;-66
2021/10/02 00:35:49;;;;;;;0.60;0.20;;;14.90;1.00;;;;;;4937776;29;20192;-66
2021/10/02 00:46:34;;;;;;;0.40;0.20;;;14.40;1.00;;;;;;4950421;29;20849;-66
2021/10/02 00:49:00;;;;;;;0.40;0.20;;;14.20;1.00;;;;;;4956510;28;20207;-63
2021/10/02 00:51:26;;;;;;;0.40;0.20;;;14.20;1.00;;;;;;4956747;28;20607;-65
2021/10/02 00:53:51;;;;;;;0.30;0.20;;;14.30;1.00;;;;;;4956834;28;20212;-65
2021/10/02 00:56:17;;;;;;;0.30;0.20;;;14.30;1.00;;;;;;4956588;28;20172;-65
2021/10/02 00:58:49;;;;;;;0.40;0.20;;;14.40;1.00;;;;;;4956550;28;20633;-65
2021/10/02 01:01:23;;;;;;;0.30;0.10;;;14.40;1.00;;;;;;4955335;29;20616;-65
2021/10/02 01:04:12;;;;;;;0.30;0.20;;;14.40;1.00;;;;;;4955587;29;20606;-63
2021/10/02 01:06:46;;;;;;;0.40;0.20;;;14.30;1.00;;;;;;4956453;28;20180;-66
2021/10/02 01:09:26;;;;;;;0.40;0.30;;;14.30;1.00;;;;;;4956234;28;20527;-66
2021/10/02 01:12:10;;;;;;;0.40;0.20;;;14.10;1.00;;;;;;4956334;29;20207;-66
2021/10/02 01:14:45;;;;;;;2.67;1.67;;;14.30;1.00;;;;;;4956168;28;20239;-65
2021/10/02 01:17:22;;;;;;;0.40;0.20;;;14.30;1.00;;;;;;4956161;28;20172;-64
2021/10/02 01:20:16;;;;;;;0.30;0.20;;;14.40;1.00;;;;;;4956409;28;20222;-66
2021/10/02 01:23:29;;;;;;;0.40;0.20;;;14.40;1.00;;;;;;4955505;28;20278;-67
2021/10/02 01:25:58;;;;;;;0.40;0.30;;;14.30;1.00;;;;;;4946802;28;20200;-64
2021/10/02 01:28:25;;;;;;;0.30;0.20;;;14.50;1.00;;;;;;4955920;28;20647;-66
2021/10/02 01:36:36;;;;;;;0.40;0.20;;;14.60;1.00;;;;;;4956171;29;20160;-66
2021/10/02 01:47:31;;;;;;;0.40;0.20;;;14.50;1.00;;;;;;4956298;29;20195;-65
2021/10/02 01:49:58;;;;;;;0.40;0.20;;;14.50;1.00;;;;;;4955837;28;20184;-66
2021/10/02 01:52:30;;;;;;;0.40;0.20;;;14.50;1.00;;;;;;4954657;28;20184;-65
2021/10/02 01:54:56;;;;;;;0.60;0.60;;;14.40;1.00;;;;;;4954959;28;20238;-66
2021/10/02 01:57:29;;;;;;;0.40;0.20;;;14.60;1.00;;;;;;4954834;29;20598;-65
2021/10/02 01:59:56;;;;;;;0.40;0.20;;;14.50;1.00;;;;;;4956297;28;20192;-66
2021/10/02 02:02:27;;;;;;;0.32;0.20;;;14.60;1.00;;;;;;4956086;28;20254;-68
2021/10/02 02:04:55;;;;;;;1.27;1.20;;;14.70;1.00;;;;;;4938770;29;20656;-68
2021/10/02 02:07:23;;;;;;;0.30;0.10;;;14.70;1.00;;;;;;4947114;29;20196;-68
2021/10/02 02:09:52;;;;;;;0.40;0.17;;;14.70;1.00;;;;;;4953520;28;20291;-69
2021/10/02 02:12:19;;;;;;;0.65;0.60;;;14.70;1.00;;;;;;4953426;28;20184;-67
2021/10/02 02:14:47;;;;;;;0.30;0.20;;;14.70;1.00;;;;;;4948913;28;20789;-68
2021/10/02 02:17:16;;;;;;;0.40;0.17;;;14.80;1.00;;;;;;4937050;29;20399;-69
2021/10/02 02:19:45;;;;;;;0.30;0.20;;;15.00;1.00;;;;;;4939348;29;20196;-67
2021/10/02 02:22:11;;;;;;;0.40;0.20;;;15.00;1.00;;;;;;4939877;29;20530;-68
2021/10/02 02:24:36;;;;;;;0.40;0.10;;;14.90;1.00;;;;;;4938388;29;20181;-69
2021/10/02 02:27:03;;;;;;;0.40;0.20;;;14.70;1.00;;;;;;4939343;29;20288;-69
2021/10/02 02:29:31;;;;;;;0.40;0.20;;;14.70;1.00;;;;;;4939422;29;20207;-69
2021/10/02 02:31:58;;;;;;;0.30;0.10;;;14.50;6.60;;;;;;4939895;29;20678;-68
2021/10/02 02:34:24;;;;;;;0.50;0.50;;;14.60;90.10;;;;;;4940456;29;20200;-69
2021/10/02 02:36:50;;;;;;;0.30;0.20;;;14.80;72.40;;;;;;4939494;29;20215;-67
2021/10/02 02:39:18;;;;;;;0.50;0.50;;;14.80;49.00;;;;;;4939322;29;20306;-68
2021/10/02 02:41:44;;;;;;;0.40;0.20;;;14.70;99.90;;;;;;4939293;29;20173;-69
2021/10/02 02:44:11;;;;;;;0.60;0.60;;;14.80;99.90;;;;;;4939323;29;20313;-69
2021/10/02 02:46:38;;;;;;;0.40;0.20;;;14.80;96.40;;;;;;4939131;29;20187;-67
2021/10/02 02:49:07;;;;;;;0.40;0.20;;;14.80;99.90;;;;;;4938974;29;20252;-69
2021/10/02 02:52:14;;;;;;;0.30;0.20;;;14.70;99.90;;;;;;4939071;29;20213;-68
2021/10/02 02:55:05;;;;;;;0.40;0.20;;;14.80;99.90;;;;;;4956248;29;20212;-68
2021/10/02 02:57:43;;;;;;;0.40;0.20;;;14.80;99.90;;;;;;4956298;29;20535;-67
2021/10/02 03:00:11;;;;;;;0.40;0.20;;;14.70;99.90;;;;;;4943400;29;20193;-69
2021/10/02 03:02:44;;;;;;;0.40;0.10;;;14.60;99.90;;;;;;4938885;29;20626;-69
2021/10/02 03:05:10;;;;;;;0.40;0.20;;;14.60;99.90;;;;;;4938862;29;20611;-67
2021/10/02 03:07:42;;;;;;;0.43;0.40;;;14.40;99.90;;;;;;4938659;29;20263;-67
2021/10/02 03:10:12;;;;;;;0.30;0.17;;;14.40;99.90;;;;;;4938547;29;20180;-67
2021/10/02 03:12:42;;;;;;;0.30;0.20;;;14.50;99.90;;;;;;4938601;29;20212;-67
2021/10/02 03:15:12;;;;;;;0.40;0.20;;;14.60;99.90;;;;;;4937789;29;20669;-67
2021/10/02 03:17:38;;;;;;;0.32;0.17;;;14.60;99.90;;;;;;4938573;29;20195;-69
2021/10/02 03:20:07;;;;;;;0.32;0.20;;;14.40;99.90;;;;;;4938442;29;20206;-68
2021/10/02 03:22:33;;;;;;;0.40;0.20;;;14.40;99.90;;;;;;4938503;29;20180;-67
2021/10/02 03:25:00;;;;;;;0.35;0.20;;;14.60;99.90;;;;;;4938396;29;20657;-68
2021/10/02 03:27:28;;;;;;;0.35;0.20;;;14.50;99.90;;;;;;4938346;29;20627;-67
2021/10/02 03:29:55;;;;;;;0.40;0.25;;;14.40;99.90;;;;;;4937211;29;20603;-69
2021/10/02 03:32:22;;;;;;;0.40;0.20;;;14.50;99.90;;;;;;4938280;29;20196;-69
2021/10/02 03:34:49;;;;;;;0.40;0.20;;;14.50;99.90;;;;;;4937300;29;20566;-69
2021/10/02 03:37:14;;;;;;;0.30;0.20;;;14.50;99.90;;;;;;4938098;29;20173;-68
2021/10/02 03:39:40;;;;;;;0.40;0.20;;;14.60;99.90;;;;;;4938044;29;20185;-70
2021/10/02 03:42:11;;;;;;;0.40;0.20;;;14.70;99.90;;;;;;4938328;29;20688;-68
2021/10/02 03:44:43;;;;;;;0.40;0.30;;;14.80;99.90;;;;;;4938087;29;20501;-67
2021/10/02 03:47:10;;;;;;;0.40;0.20;;;14.70;99.90;;;;;;4938038;29;20590;-67
2021/10/02 03:49:36;;;;;;;0.40;0.20;;;14.80;99.90;;;;;;4937951;29;20189;-69
2021/10/02 03:52:03;;;;;;;0.40;0.20;;;14.90;99.90;;;;;;4937985;29;20188;-68
2021/10/02 03:54:28;;;;;;;0.40;0.20;;;15.10;90.20;;;;;;4937908;29;20468;-68
2021/10/02 03:56:54;;;;;;;0.40;0.20;;;15.10;27.00;;;;;;4937712;29;20173;-68
2021/10/02 03:59:19;;;;;;;0.40;0.10;;;15.20;1.00;;;;;;4937853;29;20203;-70
2021/10/02 04:01:45;;;;;;;0.40;0.20;;;15.30;1.00;;;;;;4936833;29;20196;-69
2021/10/02 04:04:11;;;;;;;0.40;0.20;;;15.10;1.00;;;;;;4937759;29;20578;-70
2021/10/02 04:06:36;;;;;;;0.30;0.20;;;15.10;1.00;;;;;;4936921;29;20248;-68
2021/10/02 04:09:02;;;;;;;0.33;0.17;;;15.00;1.00;;;;;;4937790;29;20583;-69
2021/10/02 04:11:30;;;;;;;0.40;0.10;;;15.00;1.00;;;;;;4937734;29;20188;-69
2021/10/02 04:13:56;;;;;;;0.40;0.20;;;15.10;1.00;;;;;;4937465;29;20611;-69
2021/10/02 04:16:22;;;;;;;0.40;0.20;;;15.00;1.00;;;;;;4937569;29;20633;-69
2021/10/02 04:18:47;;;;;;;0.40;0.20;;;15.00;1.60;;;;;;4937325;29;20443;-69
2021/10/02 04:21:13;;;;;;;0.40;0.20;;;15.00;1.00;;;;;;4937431;29;20188;-68
2021/10/02 04:23:38;;;;;;;0.40;0.20;;;15.10;1.00;;;;;;4937369;29;20188;-67
2021/10/02 04:26:04;;;;;;;0.40;0.30;;;15.00;1.00;;;;;;4937392;29;20184;-69
2021/10/02 04:28:29;;;;;;;0.40;0.20;;;15.10;1.00;;;;;;4937147;29;20259;-69
2021/10/02 04:30:55;;;;;;;0.40;0.20;;;15.10;1.00;;;;;;4937069;29;20543;-69
2021/10/02 04:33:21;;;;;;;0.50;0.30;;;14.90;1.00;;;;;;4937106;29;20299;-69
2021/10/02 04:35:47;;;;;;;0.40;0.20;;;14.70;15.70;;;;;;4937033;29;20177;-67
2021/10/02 04:38:12;;;;;;;0.40;0.20;;;14.70;99.90;;;;;;4936638;29;20649;-69
2021/10/02 04:40:38;;;;;;;0.40;0.20;;;14.60;99.90;;;;;;4936690;29;20495;-69
2021/10/02 04:43:04;;;;;;;0.40;0.20;;;14.70;99.90;;;;;;4937049;29;20524;-68
2021/10/02 04:45:29;;;;;;;0.40;0.20;;;14.90;99.90;;;;;;4936980;29;20255;-68
2021/10/02 04:47:55;;;;;;;0.40;0.20;;;15.10;97.80;;;;;;4936837;29;20280;-69
2021/10/02 04:50:20;;;;;;;0.37;0.20;;;15.00;99.40;;;;;;4936799;29;20263;-69
2021/10/02 04:52:46;;;;;;;0.40;0.20;;;15.00;99.90;;;;;;4936947;29;20248;-69
2021/10/02 04:55:11;;;;;;;0.30;0.20;;;14.80;99.90;;;;;;4936738;29;20610;-69
2021/10/02 04:57:37;;;;;;;0.50;0.50;;;14.80;99.90;;;;;;4936801;29;20252;-69
2021/10/02 05:00:04;;;;;;;0.40;0.20;;;14.80;99.90;;;;;;4935682;29;20579;-69
2021/10/02 05:02:30;;;;;;;0.30;0.20;;;14.90;99.90;;;;;;4935980;29;20185;-69
2021/10/02 05:04:55;;;;;;;0.40;0.27;;;14.70;99.90;;;;;;4935735;29;20181;-69
2021/10/02 05:07:21;;;;;;;0.37;0.20;;;15.00;99.90;;;;;;4936545;29;20535;-69
2021/10/02 05:09:46;;;;;;;1.03;1.03;;;14.90;99.90;;;;;;4936582;29;20604;-68
2021/10/02 05:12:12;;;;;;;0.43;0.40;;;14.60;99.90;;;;;;4937020;29;20185;-69
2021/10/02 05:14:38;;;;;;;0.30;0.10;;;14.50;99.90;;;;;;4936602;29;20216;-69
2021/10/02 05:17:05;;;;;;;0.40;0.33;;;14.40;99.90;;;;;;4935766;29;20180;-69
2021/10/02 05:19:31;;;;;;;0.32;0.20;;;14.40;99.90;;;;;;4938620;29;20432;-69
2021/10/02 05:21:58;;;;;;;0.40;0.20;;;14.40;99.90;;;;;;4937146;29;20461;-67
2021/10/02 05:24:23;;;;;;;1.00;0.65;;;14.40;99.90;;;;;;4938624;29;20188;-69
2021/10/02 05:26:49;;;;;;;0.30;0.20;;;14.40;99.90;;;;;;4936698;29;20196;-67
2021/10/02 05:29:14;;;;;;;0.43;0.40;;;14.60;99.90;;;;;;4936991;29;20199;-68
2021/10/02 05:31:40;;;;;;;0.40;0.30;;;14.60;99.90;;;;;;4935841;29;20195;-67
2021/10/02 05:34:06;;;;;;;0.30;0.20;;;14.60;99.90;;;;;;4936954;29;20224;-67
2021/10/02 05:36:31;;;;;;;0.83;0.60;;;14.60;99.90;;;;;;4936459;29;20197;-69
2021/10/02 05:38:57;;;;;;;0.40;0.20;;;14.70;99.90;;;;;;4936223;29;20180;-67
2021/10/02 05:41:23;;;;;;;0.30;0.20;;;14.80;99.90;;;;;;4936338;29;20634;-69
2021/10/02 05:43:48;;;;;;;0.40;0.20;;;14.80;99.90;;;;;;4935154;29;20195;-68
2021/10/02 05:46:14;;;;;;;0.40;0.20;;;14.90;99.90;;;;;;4936263;29;20208;-69
2021/10/02 05:48:40;;;;;;;1.10;1.03;;;14.90;99.90;;;;;;4936334;29;20272;-67
2021/10/02 05:51:05;;;;;;;0.33;0.20;;;14.80;99.90;;;;;;4936679;29;20196;-68
2021/10/02 05:53:31;;;;;;;0.30;0.20;;;14.80;99.90;;;;;;4940383;29;20595;-67
2021/10/02 05:55:57;;;;;;;0.40;0.30;;;14.80;99.90;;;;;;4940759;29;20197;-67
2021/10/02 05:58:22;;;;;;;0.30;0.20;;;15.00;99.90;;;;;;4940379;29;20674;-68
2021/10/02 06:00:48;;;;;;;0.30;0.20;;;14.70;99.90;;;;;;4940591;29;20719;-67
2021/10/02 06:03:13;;;;;;;0.50;0.40;;;14.60;99.90;;;;;;4940652;29;20207;-69
2021/10/02 06:05:39;;;;;;;1.00;0.50;;;14.60;99.90;;;;;;4940857;29;20193;-69
2021/10/02 06:08:05;;;;;;;0.40;0.40;;;14.50;99.90;;;;;;4947753;28;20200;-67
2021/10/02 06:10:31;;;;;;;0.40;0.20;;;14.40;99.90;;;;;;4958201;28;20606;-67
2021/10/02 06:12:56;;;;;;;0.30;0.20;;;14.30;99.90;;;;;;4957109;28;20530;-67
2021/10/02 06:15:23;;;;;;;0.53;0.53;;;14.50;99.90;;;;;;4959301;28;20455;-67
2021/10/02 06:17:49;;;;;;;4.22;1.15;;;14.60;99.90;;;;;;4939923;29;20541;-69
2021/10/02 06:20:15;;;;;;;0.50;0.50;;;14.60;99.90;;;;;;4948133;28;20184;-67
2021/10/02 06:22:40;;;;;;;0.40;0.20;;;14.60;99.90;;;;;;4959550;28;20190;-69
2021/10/02 06:25:07;;;;;;;0.30;0.20;;;14.50;99.90;;;;;;4959328;28;20434;-69
2021/10/02 06:27:32;;;;;;;0.75;0.63;;;14.70;99.90;;;;;;4959873;29;20569;-69
2021/10/02 06:29:59;;;;;;;1.80;0.83;;;14.70;99.90;;;;;;4957701;29;20183;-67
2021/10/02 06:32:25;;;;;;;0.32;0.17;;;14.80;99.90;;;;;;4958848;28;20508;-69
2021/10/02 06:34:50;;;;;;;0.40;0.38;;;15.00;99.90;;;;;;4958857;28;20204;-67
2021/10/02 06:37:16;;;;;;;0.30;0.20;;;14.90;99.90;;;;;;4957579;28;20511;-67
2021/10/02 06:39:41;;;;;;;0.40;0.30;;;15.00;99.90;;;;;;4958655;28;20231;-67
2021/10/02 06:42:07;;;;;;;0.37;0.20;;;14.90;99.90;;;;;;4958747;28;20257;-69
2021/10/02 06:44:33;;;;;;;0.30;0.20;;;14.80;99.90;;;;;;4958492;29;20629;-69
2021/10/02 06:46:58;;;;;;;0.30;0.20;;;14.90;99.90;;;;;;4958012;29;20220;-67
2021/10/02 06:49:27;;;;;;;0.40;0.20;;;14.80;99.90;;;;;;4958268;28;20263;-69
2021/10/02 06:51:54;;;;;;;0.30;0.20;;;15.00;99.90;;;;;;4957108;28;20188;-67
2021/10/02 06:54:20;;;;;;;0.30;0.20;;;14.80;99.90;;;;;;4958640;28;20291;-69
2021/10/02 06:56:46;;;;;;;0.70;0.47;;;14.80;99.90;;;;;;4958096;28;20259;-69
2021/10/02 06:59:11;;;;;;;0.33;0.20;;;14.90;99.90;;;;;;4957840;28;20904;-67
2021/10/02 07:01:37;;;;;;;0.40;0.20;;;14.80;99.90;;;;;;4958020;28;20423;-69
2021/10/02 07:04:03;;;;;;;0.40;0.20;;;14.80;99.90;;;;;;4957721;28;20184;-68
2021/10/02 07:06:28;;;;;;;0.40;0.20;;;14.80;99.90;;;;;;4958503;28;20183;-70
2021/10/02 07:08:54;;;;;;;0.40;0.20;;;15.00;99.90;;;;;;4957832;28;20495;-69
2021/10/02 07:11:19;;;;;;;0.33;0.20;;;15.20;99.90;;;;;;4957731;28;20195;-69
2021/10/02 07:13:45;;;;;;;3.33;1.00;;;15.20;99.90;;;;;;4957593;28;20204;-69
2021/10/02 07:16:11;;;;;;;0.70;0.67;;;15.10;99.90;;;;;;4957695;28;20199;-69
2021/10/02 07:18:36;;;;;;;0.70;0.43;;;15.00;99.90;;;;;;4957479;28;20180;-69
2021/10/02 07:21:02;;;;;;;0.40;0.30;;;15.30;99.90;;;;;;4956303;28;20195;-68
2021/10/02 07:23:32;;;;;;;1.27;1.17;;;15.40;99.90;;;;;;4957468;28;20554;-68
2021/10/02 07:25:59;;;;;;;0.40;0.20;;;15.30;99.90;;;;;;4957507;28;20680;-67
2021/10/02 07:28:25;;;;;;;0.40;0.30;;;15.40;99.90;;;;;;4956441;29;20596;-67
2021/10/02 07:30:51;;;;;;;0.50;0.30;;;15.70;99.90;;;;;;4956734;28;20212;-67
2021/10/02 07:33:16;;;;;;;0.40;0.20;;;15.80;99.90;;;;;;4957523;28;20227;-69
2021/10/02 07:35:42;;;;;;;0.97;0.63;;;15.90;99.90;;;;;;4956806;28;20234;-68
2021/10/02 07:38:08;;;;;;;0.53;0.40;;;16.00;99.70;;;;;;4956496;28;20218;-68
2021/10/02 07:40:34;;;;;;;0.50;0.40;;;15.80;54.30;;;;;;4956482;28;20180;-67
2021/10/02 07:43:02;;;;;;;0.40;0.20;;;16.00;79.80;;;;;;4956081;28;20185;-68
2021/10/02 07:45:28;;;;;;;4.90;4.70;;;16.00;43.60;;;;;;4957506;28;20215;-69
2021/10/02 07:47:55;;;;;;;0.40;0.20;;;15.90;50.40;;;;;;4957379;28;20471;-67
2021/10/02 07:50:22;;;;;;;1.60;1.17;;;15.60;96.80;;;;;;4957371;28;20215;-69
2021/10/02 07:52:50;;;;;;;0.40;0.20;;;15.50;99.90;;;;;;4957176;28;20428;-69
2021/10/02 07:55:16;;;;;;;0.40;0.27;;;15.60;99.90;;;;;;4957135;28;20226;-69
2021/10/02 07:57:44;;;;;;;0.60;0.40;;;15.90;99.90;;;;;;4955714;28;20510;-67
2021/10/02 08:00:13;;;;;;;0.57;0.50;;;16.10;99.90;;;;;;4957107;28;20536;-67
2021/10/02 08:02:50;;;;;;;0.60;0.50;;;15.90;99.90;;;;;;4956665;29;20183;-69
2021/10/02 08:05:16;;;;;;;1.00;0.70;;;16.10;99.90;;;;;;4956757;28;20468;-69
2021/10/02 08:07:44;;;;;;;0.50;0.50;;;16.10;96.30;;;;;;4957014;28;20456;-69
2021/10/02 08:10:11;;;;;;;0.40;0.20;;;15.70;99.90;;;;;;4956250;28;20534;-69
2021/10/02 08:12:37;;;;;;;23.10;4.13;;;15.80;99.90;;;;;;4955479;28;20184;-69
2021/10/02 08:15:04;;;;;;;0.50;0.33;;;16.40;99.90;;;;;;4955952;28;20263;-70
2021/10/02 08:17:33;;;;;;;1.00;0.90;;;16.70;26.30;;;;;;4956679;28;20518;-68
2021/10/02 08:20:05;;;;;;;1.37;1.27;;;16.70;1.00;;;;;;4956392;28;20283;-69
2021/10/02 08:22:31;;;;;;;0.50;0.43;;;16.70;1.00;;;;;;4956229;28;20745;-70
2021/10/02 08:24:58;;;;;;;0.60;0.50;;;16.30;24.30;;;;;;4956557;28;20624;-69
2021/10/02 08:27:27;;;;;;;0.70;0.50;;;16.30;51.10;;;;;;4955476;29;20293;-70
2021/10/02 08:29:53;;;;;;;0.50;0.30;;;16.30;97.30;;;;;;4956262;28;20767;-70
2021/10/02 08:32:19;;;;;;;0.40;0.30;;;16.50;80.10;;;;;;4956471;28;20184;-70
2021/10/02 08:34:45;;;;;;;6.83;2.83;;;16.40;52.10;;;;;;4956222;28;20459;-70
2021/10/02 08:37:10;;;;;;;0.40;0.30;;;16.30;38.00;;;;;;4956032;28;20191;-70
2021/10/02 08:39:36;;;;;;;0.40;0.30;;;16.20;70.40;;;;;;4955087;28;20176;-67
2021/10/02 08:42:02;;;;;;;3.40;2.63;;;16.10;99.90;;;;;;4956366;28;20180;-69
2021/10/02 08:44:28;;;;;;;0.40;0.30;;;16.10;99.90;;;;;;4956079;28;20180;-67
2021/10/02 08:46:54;;;;;;;0.40;0.30;;;16.10;99.90;;;;;;4954387;28;20431;-67
2021/10/02 08:49:31;;;;;;;0.40;0.20;;;16.10;99.90;;;;;;4954035;28;20753;-65
2021/10/02 08:51:58;;;;;;;0.40;0.20;;;16.40;99.90;;;;;;4954224;28;20526;-66
2021/10/02 08:54:25;;;;;;;0.70;0.50;;;16.50;43.70;;;;;;4953888;28;20203;-65
2021/10/02 08:56:51;;;;;;;0.40;0.20;;;16.70;13.10;;;;;;4954228;28;20571;-66
2021/10/02 08:59:20;;;;;;;0.40;0.27;;;16.60;11.40;;;;;;4953930;28;20177;-66
2021/10/02 09:01:46;;;;;;;0.50;0.50;;;16.60;1.40;;;;;;4954903;29;20428;-67
2021/10/02 09:04:12;;;;;;;1.07;0.97;;;16.70;19.70;;;;;;4955789;28;20437;-65
2021/10/02 09:06:38;;;;;;;0.50;0.40;;;17.20;1.00;;;;;;4955755;28;20763;-67
2021/10/02 09:09:06;;;;;;;2.20;2.00;;;17.70;1.00;;;;;;4955625;28;20938;-68
2021/10/02 09:11:33;;;;;;;0.40;0.10;;;18.00;1.00;;;;;;4955867;28;20432;-68
2021/10/02 09:13:58;;;;;;;0.50;0.50;;;17.60;1.00;;;;;;4955450;28;20478;-66
2021/10/02 09:16:24;;;;;;;0.70;0.70;;;17.40;1.00;;;;;;4955875;28;20435;-66
2021/10/02 09:18:49;;;;;;;2.40;1.07;;;17.30;1.00;;;;;;4955382;28;20188;-66
2021/10/02 09:21:15;;;;;;;0.40;0.20;;;17.50;1.00;;;;;;4955717;28;20191;-66
2021/10/02 09:23:43;;;;;;;0.40;0.20;;;17.80;1.00;;;;;;4954457;28;20184;-66
2021/10/02 09:26:09;;;;;;;0.60;0.53;;;18.00;1.00;;;;;;4955630;28;21074;-67
2021/10/02 09:28:44;;;;;;;0.40;0.20;;;17.70;1.00;;;;;;4955483;28;20845;-67
2021/10/02 09:31:10;;;;;;;0.40;0.20;;;17.60;1.00;;;;;;4955731;28;20429;-66
2021/10/02 09:33:36;;;;;;;0.50;0.30;;;18.10;99.90;;;;;;4955643;28;20471;-66
2021/10/02 09:36:02;;;;;;;4.00;2.20;;;18.30;99.90;;;;;;4955566;28;20506;-68
2021/10/02 09:38:32;;;;;;;0.40;0.20;;;17.90;99.90;;;;;;4954232;28;20534;-68
2021/10/02 09:41:00;;;;;;;1.00;0.80;;;17.70;1.00;;;;;;4955424;28;20428;-68
2021/10/02 09:43:28;;;;;;;0.70;0.40;;;17.80;99.90;;;;;;4955446;28;20490;-67
2021/10/02 09:45:54;;;;;;;2.10;1.90;;;17.50;1.00;;;;;;4955206;28;20427;-68
2021/10/02 09:48:31;;;;;;;0.77;0.53;;;17.70;1.00;;;;;;4955111;28;20490;-68
2021/10/02 09:51:05;;;;;;;0.50;0.30;;;17.60;1.00;;;;;;4954423;28;20790;-65
2021/10/02 09:53:38;;;;;;;0.40;0.20;;;17.70;99.90;;;;;;4955554;28;20797;-66
2021/10/02 09:56:07;;;;;;;0.97;0.97;;;18.00;99.90;;;;;;4955344;28;20451;-66
2021/10/02 09:58:35;;;;;;;0.53;0.40;;;18.40;99.90;;;;;;4955080;28;20427;-68
2021/10/02 10:01:04;;;;;;;0.40;0.20;;;18.70;27.20;;;;;;4955653;28;20436;-66
2021/10/02 10:03:47;;;;;;;0.40;0.30;;;19.00;1.00;;;;;;4955377;28;20919;-68
2021/10/02 10:06:27;;;;;;;0.40;0.20;;;19.60;99.90;;;;;;4954106;28;20450;-66
2021/10/02 10:09:10;;;;;;;1.33;1.23;;;19.30;1.00;;;;;;4938498;29;20494;-66
2021/10/02 10:11:52;;;;;;;2.23;1.00;;;18.70;99.90;;;;;;4955090;28;20527;-66
2021/10/02 10:14:24;;;;;;;0.60;0.47;;;18.60;99.90;;;;;;4955295;28;20558;-67
2021/10/02 10:16:51;;;;;;;0.40;0.20;;;18.70;99.90;;;;;;4953932;29;20500;-66
2021/10/02 10:19:21;;;;;;;0.40;0.20;;;18.50;1.00;;;;;;4955056;28;20428;-67
2021/10/02 10:22:11;;;;;;;0.40;0.20;;;18.80;99.90;;;;;;4955219;28;20582;-66
2021/10/02 10:24:39;;;;;;;0.40;0.20;;;18.90;99.90;;;;;;4955343;28;20446;-66
2021/10/02 10:27:06;;;;;;;0.47;0.30;;;18.90;1.00;;;;;;4954923;28;20924;-68
2021/10/02 10:29:49;;;;;;;0.40;0.20;;;19.00;1.00;;;;;;4955077;28;20442;-68
2021/10/02 10:32:14;;;;;;;0.40;0.20;;;19.10;4.00;;;;;;4955058;28;20427;-68
2021/10/02 10:34:41;;;;;;;0.40;0.20;;;19.30;99.90;;;;;;4954914;28;20481;-69
2021/10/02 10:37:12;;;;;;;0.40;0.20;;;19.40;1.00;;;;;;4955175;28;20260;-68
2021/10/02 10:39:39;;;;;;;0.40;0.20;;;19.20;1.00;;;;;;4958493;28;20565;-69
2021/10/02 10:42:07;;;;;;;0.40;0.20;;;19.30;1.00;;;;;;4958757;28;20459;-70
2021/10/02 10:44:33;;;;;;;0.40;0.10;;;19.20;99.90;;;;;;4958536;29;20930;-69
2021/10/02 10:46:59;;;;;;;0.40;0.20;;;19.10;1.00;;;;;;4958394;28;20431;-69
2021/10/02 10:49:25;;;;;;;0.40;0.20;;;18.60;1.00;;;;;;4958289;28;20434;-69
2021/10/02 10:51:51;;;;;;;0.40;0.20;;;18.50;1.00;;;;;;4958720;28;20191;-69
2021/10/02 10:54:18;;;;;;;0.40;0.13;;;18.70;1.00;;;;;;4958380;28;20513;-69
2021/10/02 10:56:49;;;;;;;0.40;0.20;;;19.00;99.90;;;;;;4958271;28;20444;-69
2021/10/02 10:59:19;;;;;;;0.40;0.10;;;19.20;1.00;;;;;;4956844;29;21008;-69
2021/10/02 11:01:47;;;;;;;0.40;0.20;;;19.30;1.00;;;;;;4958004;28;20432;-69
2021/10/02 11:04:37;;;;;;;0.50;0.40;;;19.10;1.00;;;;;;4958018;28;21000;-69
2021/10/02 11:07:04;;;;;;;0.40;0.20;;;18.50;1.00;;;;;;4957842;28;20444;-68
2021/10/02 11:09:43;;;;;;;0.40;0.10;;;18.40;99.90;;;;;;4957731;28;20526;-68
2021/10/02 11:12:10;;;;;;;0.60;0.60;;;18.60;1.00;;;;;;4958215;28;20510;-68
2021/10/02 11:14:51;;;;;;;0.93;0.60;;;19.20;1.00;;;;;;4957737;28;20481;-68
2021/10/02 11:17:31;;;;;;;0.40;0.20;;;19.20;21.70;;;;;;4957743;28;20432;-69
2021/10/02 11:19:58;;;;;;;0.70;0.40;;;19.00;83.90;;;;;;4957447;28;20431;-69
2021/10/02 11:23:08;;;;;;;0.50;0.30;;;18.50;1.00;;;;;;4957698;28;20443;-68
2021/10/02 11:25:35;;;;;;;0.40;0.20;;;17.90;99.90;;;;;;4957992;28;21061;-68
2021/10/02 11:28:22;;;;;;;0.40;0.20;;;17.70;99.90;;;;;;4957381;28;20758;-68
2021/10/02 11:30:53;;;;;;;2.40;1.63;;;17.70;99.90;;;;;;4957290;28;20901;-69
2021/10/02 11:33:27;;;;;;;0.40;0.20;;;18.20;99.90;;;;;;4957703;28;20514;-67
2021/10/02 11:35:53;;;;;;;0.87;0.87;;;18.40;98.10;;;;;;4957513;28;20436;-67
2021/10/02 11:38:37;;;;;;;0.43;0.30;;;18.80;99.90;;;;;;4957195;28;20436;-69
2021/10/02 11:41:22;;;;;;;0.50;0.30;;;19.10;99.90;;;;;;4957481;28;20180;-69
2021/10/02 11:43:55;;;;;;;3.00;0.80;;;19.20;99.90;;;;;;4956665;28;20428;-68
2021/10/02 11:46:24;;;;;;;0.50;0.50;;;18.70;1.00;;;;;;4957577;28;20427;-68
2021/10/02 11:48:51;;;;;;;0.40;0.10;;;18.80;99.90;;;;;;4956820;28;20462;-67
2021/10/02 11:51:18;;;;;;;0.50;0.20;;;18.70;1.00;;;;;;4956920;28;20428;-67
2021/10/02 11:53:49;;;;;;;1.77;1.43;;;18.80;99.90;;;;;;4957003;28;20463;-67
2021/10/02 11:56:21;;;;;;;0.70;0.40;;;18.70;1.00;;;;;;4957213;28;20427;-69
2021/10/02 11:58:59;;;;;;;0.50;0.30;;;18.20;1.00;;;;;;4957143;28;20965;-66
2021/10/02 12:01:30;;;;;;;0.50;0.30;;;17.90;99.90;;;;;;4957024;28;20816;-67
2021/10/02 12:04:11;;;;;;;2.00;0.70;;;17.90;1.00;;;;;;4956878;28;20459;-67
2021/10/02 12:06:39;;;;;;;0.40;0.20;;;17.50;1.00;;;;;;4956994;28;20430;-66
2021/10/02 12:09:09;;;;;;;3.43;3.23;;;17.20;1.00;;;;;;4956470;28;20885;-66
2021/10/02 12:11:50;;;;;;;0.40;0.20;;;17.30;1.00;;;;;;4956730;28;20478;-68
2021/10/02 12:14:18;;;;;;;1.00;0.70;;;17.60;1.00;;;;;;4956353;28;20463;-68
2021/10/02 12:16:53;;;;;;;0.40;0.20;;;17.80;1.00;;;;;;4955748;28;20788;-69
2021/10/02 12:19:22;;;;;;;0.73;0.20;;;17.90;99.90;;;;;;4956425;28;20526;-68
2021/10/02 12:21:59;;;;;;;0.50;0.30;;;18.10;99.90;;;;;;4956398;28;20514;-67
2021/10/02 12:24:31;;;;;;;0.60;0.40;;;17.90;99.90;;;;;;4956322;28;20437;-67
2021/10/02 12:27:10;;;;;;;1.00;0.97;;;18.20;99.90;;;;;;4956318;28;20444;-68
2021/10/02 12:29:41;;;;;;;1.50;1.13;;;18.00;99.90;;;;;;4956177;28;20435;-69
2021/10/02 12:32:09;;;;;;;0.40;0.20;;;18.20;99.90;;;;;;4956811;28;20459;-69
2021/10/02 12:34:44;;;;;;;1.50;1.13;;;18.30;99.90;;;;;;4956208;28;20463;-68
2021/10/02 12:37:24;;;;;;;1.00;0.90;;;18.60;1.00;;;;;;4956120;28;20435;-66
2021/10/02 12:40:04;;;;;;;0.40;0.20;;;18.30;1.00;;;;;;4955035;28;20512;-68
2021/10/02 12:42:32;;;;;;;0.50;0.30;;;18.30;61.00;;;;;;4956364;28;20497;-66
2021/10/02 12:44:58;;;;;;;0.50;0.30;;;18.30;99.90;;;;;;4956261;28;20427;-68
2021/10/02 12:47:26;;;;;;;1.80;1.30;;;18.70;1.00;;;;;;4955170;29;20510;-68
2021/10/02 12:49:56;;;;;;;2.00;1.53;;;18.00;1.00;;;;;;4939409;29;20439;-69
2021/10/02 12:52:21;;;;;;;1.30;1.20;;;18.10;1.00;;;;;;4956247;28;20446;-69
2021/10/02 12:54:50;;;;;;;0.60;0.50;;;17.80;42.10;;;;;;4956118;28;20940;-67
2021/10/02 12:57:23;;;;;;;0.73;0.73;;;17.60;99.90;;;;;;4955904;28;20428;-68
2021/10/02 13:00:05;;;;;;;0.40;0.20;;;17.70;99.90;;;;;;4956019;28;20502;-68
2021/10/02 13:02:32;;;;;;;0.40;0.20;;;17.80;99.90;;;;;;4955904;28;20419;-69
2021/10/02 13:04:59;;;;;;;0.90;0.47;;;18.10;26.60;;;;;;4956691;28;20443;-67
2021/10/02 13:07:31;;;;;;;0.40;0.20;;;18.20;25.60;;;;;;4955151;28;20446;-69
2021/10/02 13:10:15;;;;;;;0.73;0.73;;;18.30;1.00;;;;;;4955921;28;20439;-68
2021/10/02 13:12:55;;;;;;;0.40;0.20;;;18.40;99.90;;;;;;4956069;28;20523;-67
2021/10/02 13:15:27;;;;;;;0.40;0.20;;;18.30;1.00;;;;;;4955742;28;20463;-68
2021/10/02 13:18:04;;;;;;;1.70;0.57;;;18.60;1.00;;;;;;4954728;28;20423;-67
2021/10/02 13:20:31;;;;;;;0.50;0.30;;;18.50;99.90;;;;;;4954857;28;20431;-68
2021/10/02 13:23:06;;;;;;;0.63;0.40;;;18.00;1.00;;;;;;4955729;28;20775;-69
2021/10/02 13:25:35;;;;;;;0.50;0.37;;;18.00;99.90;;;;;;4955985;28;20447;-67
2021/10/02 13:28:02;;;;;;;0.40;0.23;;;18.20;99.90;;;;;;4955314;28;20515;-68
2021/10/02 13:30:29;;;;;;;0.40;0.20;;;18.20;99.90;;;;;;4955634;28;20463;-69
2021/10/02 13:33:01;;;;;;;0.40;0.20;;;18.30;99.90;;;;;;4955865;28;20791;-69
2021/10/02 13:35:30;;;;;;;0.40;0.20;;;18.50;99.90;;;;;;4956155;28;20467;-68
2021/10/02 13:37:56;;;;;;;0.40;0.20;;;18.70;1.00;;;;;;4954401;28;20908;-68
2021/10/02 13:40:30;;;;;;;0.40;0.10;;;18.80;1.00;;;;;;4955331;28;20442;-69
2021/10/02 13:42:59;;;;;;;0.70;0.50;;;18.60;1.00;;;;;;4955332;28;20922;-68
2021/10/02 13:45:38;;;;;;;0.40;0.20;;;18.40;1.00;;;;;;4954753;28;20435;-67
2021/10/02 13:48:08;;;;;;;0.60;0.40;;;18.40;81.30;;;;;;4954891;28;20446;-67
2021/10/02 13:50:37;;;;;;;0.50;0.30;;;18.00;1.00;;;;;;4955035;28;20455;-67
2021/10/02 13:53:04;;;;;;;0.70;0.70;;;17.80;99.90;;;;;;4955255;28;20427;-68
2021/10/02 13:55:30;;;;;;;0.93;0.93;;;17.80;99.90;;;;;;4954127;29;20463;-68